Bartonia, Indiana
Current Conditions -  °F | °C
As of 5:55 PM on Wednesday 26 Nov 2014 (Local Time) from KVES Reporting Station
Overcast Overcast  
Wind Chill: -2°   Ceiling: 1700
Heat Index: -2°   Visibility: 10mi
Dew Point: -4°   Wind: 3mph
Humidity: 86%   Direction: 350°N
Pressure: 30.05"   Gusts: NA
Location:  40.2091°N, 84.8536°W
Report Text: KVES 262255Z AUTO 35003KT 10SM OVC017 M02/M04 A3005 RMK AO2
Loading
Personal Weather Stations






























Interactive Weather Map New forecast layout! Learn more

10-Day Weather Forecast

Advertisements
Track Severe Weather on mobile